createdAt,value
2022-09-26T00:01:22.493Z,10.42
2022-09-26T00:03:52.333Z,10.65
2022-09-26T00:06:20.041Z,10.80
2022-09-26T00:08:48.908Z,10.72
2022-09-26T00:11:22.453Z,10.85
2022-09-26T00:13:53.468Z,10.90
2022-09-26T00:16:20.642Z,10.85
2022-09-26T00:18:51.735Z,10.93
2022-09-26T00:21:19.016Z,10.97
2022-09-26T00:23:46.188Z,10.84
2022-09-26T00:26:14.867Z,11.00
2022-09-26T00:28:42.258Z,10.93
2022-09-26T00:31:11.750Z,11.02
2022-09-26T00:33:38.435Z,11.00
2022-09-26T00:36:05.833Z,11.05
2022-09-26T00:38:33.093Z,11.06
2022-09-26T00:41:00.095Z,11.07
2022-09-26T00:43:38.923Z,11.09
2022-09-26T00:46:33.098Z,11.12
2022-09-26T00:49:18.360Z,11.13
2022-09-26T00:51:50.797Z,11.13
2022-09-26T00:54:19.090Z,11.12
2022-09-26T00:56:49.585Z,11.03
2022-09-26T00:59:22.871Z,11.16
2022-09-26T01:01:54.997Z,11.18
2022-09-26T01:04:25.753Z,11.09
2022-09-26T01:06:52.404Z,11.09
2022-09-26T01:09:20.133Z,11.20
2022-09-26T01:11:46.930Z,11.21
2022-09-26T01:14:13.851Z,11.09
2022-09-26T01:16:44.638Z,11.11
2022-09-26T01:19:43.095Z,11.32
2022-09-26T01:22:43.133Z,11.32
2022-09-26T01:25:21.746Z,11.36
2022-09-26T01:28:16.043Z,11.41
2022-09-26T01:31:00.640Z,11.42
2022-09-26T01:33:59.678Z,11.43
2022-09-26T01:36:31.981Z,11.42
2022-09-26T01:39:10.480Z,11.44
2022-09-26T01:41:55.716Z,11.44
2022-09-26T01:44:50.909Z,11.48
2022-09-26T01:47:39.135Z,11.46
2022-09-26T01:50:17.820Z,11.45
2022-09-26T01:52:52.127Z,11.34
2022-09-26T01:55:28.061Z,11.46
2022-09-26T01:58:10.057Z,11.48
2022-09-26T02:00:37.951Z,11.48
2022-09-26T02:03:08.990Z,11.49
2022-09-26T02:05:42.083Z,11.47
2022-09-26T02:08:18.441Z,11.37
2022-09-26T02:10:51.249Z,11.39
2022-09-26T02:13:35.877Z,11.50
2022-09-26T02:16:09.262Z,11.35
2022-09-26T02:18:42.669Z,11.40
2022-09-26T02:21:17.906Z,11.50
2022-09-26T02:23:44.458Z,11.50
2022-09-26T02:26:10.966Z,11.55
2022-09-26T02:28:37.514Z,11.55
2022-09-26T02:31:08.513Z,11.50
2022-09-26T02:33:36.266Z,11.54
2022-09-26T02:36:06.464Z,11.56
2022-09-26T02:38:32.916Z,11.46
2022-09-26T02:41:11.789Z,11.53
2022-09-26T02:44:22.059Z,11.55
2022-09-26T02:47:17.459Z,11.56
2022-09-26T02:49:59.096Z,11.57
2022-09-26T02:53:04.914Z,11.58
2022-09-26T02:55:52.738Z,11.59
2022-09-26T02:58:36.369Z,11.57
2022-09-26T03:01:19.094Z,11.61
2022-09-26T03:03:58.287Z,11.58
2022-09-26T03:06:30.191Z,11.57
2022-09-26T03:08:58.750Z,11.48
2022-09-26T03:11:27.287Z,11.57
2022-09-26T03:13:55.775Z,11.57
2022-09-26T03:16:25.204Z,11.60
2022-09-26T03:19:17.207Z,11.63
2022-09-26T03:21:45.185Z,11.55
2022-09-26T03:24:12.998Z,11.48
2022-09-26T03:26:41.366Z,11.62
2022-09-26T03:29:08.471Z,11.67
2022-09-26T03:31:35.051Z,11.67
2022-09-26T03:34:01.542Z,11.70
2022-09-26T03:36:28.608Z,11.70
2022-09-26T03:38:55.011Z,11.62
2022-09-26T03:41:22.053Z,11.77
2022-09-26T03:43:49.661Z,11.77
2022-09-26T03:46:16.120Z,11.72
2022-09-26T03:48:43.199Z,11.77
2022-09-26T03:51:13.098Z,11.78
2022-09-26T03:53:42.697Z,11.74
2022-09-26T03:56:18.136Z,11.60
2022-09-26T03:58:45.835Z,11.72
2022-09-26T04:01:18.061Z,11.77
2022-09-26T04:03:50.277Z,11.76
2022-09-26T04:06:20.115Z,11.63
2022-09-26T04:08:52.228Z,11.65
2022-09-26T04:11:21.941Z,11.77
2022-09-26T04:13:52.516Z,11.76
2022-09-26T04:16:21.311Z,11.75
2022-09-26T04:18:47.988Z,11.77
2022-09-26T04:21:14.711Z,11.81
2022-09-26T04:23:43.117Z,11.83
2022-09-26T04:26:11.452Z,11.88
2022-09-26T04:28:38.403Z,11.91
2022-09-26T04:31:06.599Z,11.90
2022-09-26T04:33:33.718Z,11.96
2022-09-26T04:36:05.830Z,11.92
2022-09-26T04:38:34.809Z,11.98
2022-09-26T04:41:15.254Z,12.01
2022-09-26T04:43:42.351Z,11.98
2022-09-26T04:46:18.542Z,11.95
2022-09-26T04:48:47.955Z,11.98
2022-09-26T04:51:16.964Z,11.89
2022-09-26T04:53:43.687Z,12.00
2022-09-26T04:56:12.425Z,12.02
2022-09-26T04:58:39.338Z,12.02
2022-09-26T05:01:10.028Z,11.95
2022-09-26T05:03:39.258Z,12.02
2022-09-26T05:06:08.891Z,12.01
2022-09-26T05:08:36.359Z,12.01
2022-09-26T05:11:02.791Z,12.02
2022-09-26T05:13:29.570Z,11.97
2022-09-26T05:15:58.474Z,12.00
2022-09-26T05:18:26.459Z,12.00
2022-09-26T05:20:54.734Z,12.01
2022-09-26T05:23:44.739Z,12.02
2022-09-26T05:26:26.288Z,12.01
2022-09-26T05:28:56.464Z,12.06
2022-09-26T05:31:28.954Z,12.03
2022-09-26T05:33:58.878Z,12.03
2022-09-26T05:36:26.554Z,12.04
2022-09-26T05:38:53.901Z,12.05
2022-09-26T05:41:21.024Z,12.05
2022-09-26T05:43:47.970Z,11.97
2022-09-26T05:46:15.477Z,12.12
2022-09-26T05:48:42.245Z,12.09
2022-09-26T05:51:13.821Z,12.14
2022-09-26T05:53:42.455Z,12.20
2022-09-26T05:56:09.638Z,12.22
2022-09-26T05:58:38.081Z,12.21
2022-09-26T06:01:09.803Z,12.15
2022-09-26T06:03:36.896Z,12.27
2022-09-26T06:06:08.658Z,12.33
2022-09-26T06:08:36.993Z,12.36
2022-09-26T06:11:06.594Z,12.43
2022-09-26T06:13:34.271Z,12.50
2022-09-26T06:16:06.124Z,12.49
2022-09-26T06:18:33.944Z,12.40
2022-09-26T06:21:04.999Z,12.63
2022-09-26T06:23:32.153Z,12.68
2022-09-26T06:25:59.093Z,12.77
2022-09-26T06:28:26.473Z,12.80
2022-09-26T06:30:53.773Z,12.86
2022-09-26T06:33:21.051Z,12.92
2022-09-26T06:35:47.476Z,12.91
2022-09-26T06:38:14.466Z,13.01
2022-09-26T06:40:40.876Z,13.07
2022-09-26T06:43:07.475Z,13.01
2022-09-26T06:45:34.902Z,13.17
2022-09-26T06:48:02.503Z,13.14
2022-09-26T06:50:28.929Z,13.33
2022-09-26T06:52:55.361Z,13.31
2022-09-26T06:55:22.492Z,13.43
2022-09-26T06:57:48.943Z,13.50
2022-09-26T07:00:15.937Z,13.49
2022-09-26T07:02:53.136Z,13.52
2022-09-26T07:05:21.352Z,13.52
2022-09-26T07:07:48.530Z,13.50
2022-09-26T07:10:18.581Z,13.53
2022-09-26T07:12:47.067Z,13.57
2022-09-26T07:15:18.664Z,13.55
2022-09-26T07:17:47.951Z,13.55
2022-09-26T07:20:17.082Z,13.61
2022-09-26T07:22:43.931Z,13.63
2022-09-26T07:25:11.424Z,13.70
2022-09-26T07:27:39.542Z,13.71
2022-09-26T07:30:07.883Z,13.73
2022-09-26T07:32:35.042Z,13.74
2022-09-26T07:35:04.935Z,13.74
2022-09-26T07:37:31.975Z,13.76
2022-09-26T07:40:01.572Z,13.77
2022-09-26T07:42:28.557Z,13.75
2022-09-26T07:45:24.800Z,13.67
2022-09-26T07:47:59.751Z,13.77
2022-09-26T07:50:26.234Z,13.78
2022-09-26T07:52:52.776Z,13.80
2022-09-26T07:55:21.755Z,13.84
2022-09-26T07:57:50.120Z,13.86
2022-09-26T08:00:19.470Z,13.75
2022-09-26T08:02:46.973Z,13.89
2022-09-26T08:05:24.514Z,13.73
2022-09-26T08:07:51.305Z,13.87
2022-09-26T08:10:21.117Z,13.90
2022-09-26T08:12:48.375Z,13.93
2022-09-26T08:15:15.498Z,13.90
2022-09-26T08:17:43.328Z,13.98
2022-09-26T08:20:10.839Z,14.03
2022-09-26T08:22:37.210Z,14.05
2022-09-26T08:25:06.503Z,13.97
2022-09-26T08:27:34.466Z,14.09
2022-09-26T08:30:03.143Z,14.04
2022-09-26T08:32:32.142Z,14.20
2022-09-26T08:34:58.516Z,14.30
2022-09-26T08:37:28.914Z,14.30
2022-09-26T08:39:55.303Z,14.35
2022-09-26T08:42:39.069Z,14.53
2022-09-26T08:46:04.124Z,14.67
2022-09-26T08:48:52.018Z,14.74
2022-09-26T08:51:35.321Z,14.77
2022-09-26T08:54:16.550Z,14.85
2022-09-26T08:56:49.972Z,14.95
2022-09-26T08:59:41.267Z,15.10
2022-09-26T09:02:37.854Z,15.27
2022-09-26T09:05:25.061Z,15.47
2022-09-26T09:07:55.829Z,15.58
2022-09-26T09:10:45.058Z,15.80
2022-09-26T09:13:28.251Z,16.04
2022-09-26T09:16:11.232Z,16.08
2022-09-26T09:18:57.468Z,16.18
2022-09-26T09:21:41.599Z,16.09
2022-09-26T09:24:27.464Z,16.02
2022-09-26T09:30:10.386Z,15.80
2022-09-26T09:32:51.631Z,15.72
2022-09-26T09:35:37.200Z,15.63
2022-09-26T09:38:07.343Z,15.66
2022-09-26T09:40:40.385Z,15.48
2022-09-26T09:43:43.460Z,15.65
2022-09-26T09:46:16.954Z,15.61
2022-09-26T09:48:46.605Z,15.62
2022-09-26T09:51:24.470Z,15.66
2022-09-26T09:53:58.910Z,15.72
2022-09-26T09:56:31.073Z,15.77
2022-09-26T09:59:22.035Z,15.93
2022-09-26T10:01:57.696Z,16.01
2022-09-26T10:04:33.949Z,16.18
2022-09-26T10:07:01.912Z,16.30
2022-09-26T10:09:40.136Z,16.43
2022-09-26T10:12:16.900Z,16.48
2022-09-26T10:14:55.069Z,16.51
2022-09-26T10:17:23.408Z,16.59
2022-09-26T10:19:50.960Z,16.59
2022-09-26T10:22:26.409Z,16.62
2022-09-26T10:25:06.262Z,16.66
2022-09-26T10:27:41.028Z,16.73
2022-09-26T10:30:21.037Z,16.74
2022-09-26T10:32:55.562Z,16.71
2022-09-26T10:35:25.419Z,16.66
2022-09-26T10:38:05.812Z,16.63
2022-09-26T10:40:46.245Z,16.58
2022-09-26T10:43:33.435Z,16.52
2022-09-26T10:45:59.875Z,16.45
2022-09-26T10:48:37.603Z,16.38
2022-09-26T10:51:05.515Z,16.35
2022-09-26T10:53:37.000Z,16.34
2022-09-26T10:56:11.390Z,16.27
2022-09-26T10:58:45.932Z,16.31
2022-09-26T11:01:27.837Z,16.33
2022-09-26T11:03:57.535Z,16.28
2022-09-26T11:06:40.462Z,16.41
2022-09-26T11:09:07.282Z,16.46
2022-09-26T11:11:38.322Z,16.38
2022-09-26T11:14:08.334Z,16.23
2022-09-26T11:16:43.704Z,16.57
2022-09-26T11:19:26.826Z,16.53
2022-09-26T11:22:08.013Z,16.47
2022-09-26T11:24:45.570Z,16.39
2022-09-26T11:27:50.591Z,16.40
2022-09-26T11:30:22.175Z,16.19
2022-09-26T11:32:51.579Z,16.06
2022-09-26T11:35:33.352Z,15.96
2022-09-26T11:38:09.725Z,15.77
2022-09-26T11:41:05.467Z,15.60
2022-09-26T11:43:45.125Z,15.39
2022-09-26T11:46:34.587Z,15.26
2022-09-26T11:49:33.222Z,15.16
2022-09-26T11:52:49.479Z,14.95
2022-09-26T11:55:24.093Z,14.80
2022-09-26T11:58:14.203Z,14.69
2022-09-26T12:01:08.319Z,14.57
2022-09-26T12:03:46.716Z,14.43
2022-09-26T12:06:27.493Z,14.39
2022-09-26T12:09:12.758Z,14.31
2022-09-26T12:11:53.572Z,14.25
2022-09-26T12:14:55.704Z,14.23
2022-09-26T12:17:36.051Z,14.20
2022-09-26T12:20:15.240Z,14.25
2022-09-26T12:22:47.256Z,14.27
2022-09-26T12:25:56.023Z,14.31
2022-09-26T12:28:44.227Z,14.37
2022-09-26T12:31:31.817Z,14.53
2022-09-26T12:34:28.905Z,14.62
2022-09-26T12:37:27.669Z,14.69
2022-09-26T12:40:15.175Z,14.75
2022-09-26T12:43:13.934Z,14.76
2022-09-26T12:45:55.554Z,14.84
2022-09-26T12:48:53.715Z,14.89
2022-09-26T12:51:36.145Z,14.81
2022-09-26T12:54:34.003Z,14.90
2022-09-26T12:57:09.600Z,14.83
2022-09-26T12:59:54.481Z,14.82
2022-09-26T13:02:47.859Z,14.74
2022-09-26T13:05:14.916Z,14.81
2022-09-26T13:07:51.242Z,14.82
2022-09-26T13:10:35.876Z,14.81
2022-09-26T13:13:23.984Z,14.77
2022-09-26T13:15:58.225Z,14.71
2022-09-26T13:18:34.628Z,14.73
2022-09-26T13:21:08.687Z,14.50
2022-09-26T13:23:38.420Z,14.66
2022-09-26T13:26:28.941Z,14.73
2022-09-26T13:29:17.064Z,14.70
2022-09-26T13:32:36.808Z,14.78
2022-09-26T13:35:17.384Z,14.64
2022-09-26T13:38:17.943Z,14.70
2022-09-26T13:41:14.041Z,14.64
2022-09-26T13:43:57.033Z,14.56
2022-09-26T13:46:53.960Z,14.51
2022-09-26T13:49:43.833Z,14.47
2022-09-26T13:52:20.024Z,14.37
2022-09-26T13:55:00.380Z,14.36
2022-09-26T13:57:38.881Z,14.40
2022-09-26T14:00:46.676Z,14.29
2022-09-26T14:03:13.559Z,14.16
2022-09-26T14:05:50.725Z,14.17
2022-09-26T14:08:52.350Z,14.07
2022-09-26T14:11:18.825Z,14.00
2022-09-26T14:13:46.772Z,13.96
2022-09-26T14:16:28.180Z,13.95
2022-09-26T14:19:08.234Z,13.88
2022-09-26T14:21:40.377Z,13.88
2022-09-26T14:24:27.440Z,13.89
2022-09-26T14:27:11.969Z,13.85
2022-09-26T14:29:38.435Z,13.77
2022-09-26T14:32:08.682Z,13.78
2022-09-26T14:34:37.990Z,13.69
2022-09-26T14:37:37.697Z,13.76
2022-09-26T14:40:10.163Z,13.71
2022-09-26T14:42:52.304Z,13.70
2022-09-26T14:45:25.222Z,13.67
2022-09-26T14:47:57.795Z,13.69
2022-09-26T14:53:13.114Z,13.57
2022-09-26T14:55:54.293Z,13.70
2022-09-26T14:58:31.980Z,13.69
2022-09-26T15:01:04.532Z,13.70
2022-09-26T15:03:33.994Z,13.66
2022-09-26T15:06:04.303Z,13.73
2022-09-26T15:08:35.061Z,13.68
2022-09-26T15:11:04.118Z,13.71
2022-09-26T15:13:45.092Z,13.62
2022-09-26T15:16:40.794Z,13.70
2022-09-26T15:19:18.741Z,13.64
2022-09-26T15:21:51.158Z,13.63
2022-09-26T15:24:24.992Z,13.58
2022-09-26T15:26:51.894Z,13.51
2022-09-26T15:29:18.400Z,13.50
2022-09-26T15:31:45.996Z,13.48
2022-09-26T15:34:23.053Z,13.41
2022-09-26T15:36:56.130Z,13.39
2022-09-26T15:39:31.565Z,13.36
2022-09-26T15:42:24.467Z,13.32
2022-09-26T15:44:58.550Z,13.32
2022-09-26T15:47:29.791Z,13.27
2022-09-26T15:50:04.066Z,13.27
2022-09-26T15:52:35.328Z,13.24
2022-09-26T15:55:05.081Z,13.24
2022-09-26T15:57:32.377Z,13.24
2022-09-26T16:00:01.650Z,13.23
2022-09-26T16:02:32.740Z,13.23
2022-09-26T16:05:00.091Z,13.20
2022-09-26T16:07:30.604Z,13.22
2022-09-26T16:09:58.133Z,13.13
2022-09-26T16:12:30.200Z,13.19
2022-09-26T16:14:59.904Z,13.14
2022-09-26T16:17:26.352Z,13.15
2022-09-26T16:19:58.434Z,13.13
2022-09-26T16:22:38.769Z,13.14
2022-09-26T16:25:20.375Z,13.23
2022-09-26T16:27:49.422Z,13.04
2022-09-26T16:30:59.134Z,13.17
2022-09-26T16:33:32.588Z,13.11
2022-09-26T16:36:27.450Z,13.14
2022-09-26T16:38:59.984Z,13.09
2022-09-26T16:44:33.473Z,13.10
2022-09-26T16:47:05.307Z,13.09
2022-09-26T16:49:47.352Z,13.07
2022-09-26T16:52:21.757Z,13.09
2022-09-26T16:54:49.094Z,13.07
2022-09-26T16:57:22.654Z,13.08
2022-09-26T16:59:49.641Z,13.08
2022-09-26T17:02:17.042Z,13.02
2022-09-26T17:04:44.477Z,13.07
2022-09-26T17:07:15.867Z,13.08
2022-09-26T17:09:44.065Z,13.06
2022-09-26T17:12:21.820Z,13.06
2022-09-26T17:14:51.980Z,13.07
2022-09-26T17:17:22.946Z,13.13
2022-09-26T17:19:55.503Z,13.07
2022-09-26T17:22:24.202Z,13.04
2022-09-26T17:24:51.751Z,13.06
2022-09-26T17:27:25.641Z,13.10
2022-09-26T17:29:54.398Z,12.93
2022-09-26T17:32:29.574Z,13.11
2022-09-26T17:35:01.977Z,13.13
2022-09-26T17:37:29.003Z,13.13
2022-09-26T17:39:56.073Z,13.02
2022-09-26T17:42:23.093Z,13.08
2022-09-26T17:44:50.446Z,13.03
2022-09-26T17:47:18.731Z,13.08
2022-09-26T17:49:50.616Z,13.04
2022-09-26T17:52:28.766Z,13.07
2022-09-26T17:54:58.587Z,13.08
2022-09-26T17:57:29.938Z,13.09
2022-09-26T17:59:57.658Z,13.05
2022-09-26T18:02:33.754Z,13.08
2022-09-26T18:05:04.401Z,13.03
2022-09-26T18:07:38.101Z,13.08
2022-09-26T18:10:07.557Z,13.08
2022-09-26T18:12:34.944Z,13.08
2022-09-26T18:15:03.813Z,13.06
2022-09-26T18:17:30.907Z,13.06
2022-09-26T18:19:57.427Z,13.10
2022-09-26T18:22:29.882Z,13.09
2022-09-26T18:25:03.867Z,13.07
2022-09-26T18:27:32.823Z,13.12
2022-09-26T18:29:59.907Z,13.15
2022-09-26T18:32:33.276Z,13.12
2022-09-26T18:35:00.038Z,13.15
2022-09-26T18:37:26.739Z,13.15
2022-09-26T18:39:55.746Z,13.11
2022-09-26T18:42:24.387Z,13.19
2022-09-26T18:45:00.050Z,13.22
2022-09-26T18:47:26.792Z,13.20
2022-09-26T18:49:53.192Z,13.23
2022-09-26T18:52:22.476Z,13.22
2022-09-26T18:55:08.937Z,13.25
2022-09-26T18:57:54.092Z,13.27
2022-09-26T19:00:20.561Z,13.27
2022-09-26T19:02:49.288Z,13.25
2022-09-26T19:05:16.505Z,13.24
2022-09-26T19:07:44.824Z,13.21
2022-09-26T19:10:22.149Z,13.24
2022-09-26T19:12:48.608Z,13.25
2022-09-26T19:15:16.356Z,13.24
2022-09-26T19:17:43.407Z,13.21
2022-09-26T19:20:10.018Z,13.21
2022-09-26T19:22:36.745Z,13.18
2022-09-26T19:25:03.975Z,13.18
2022-09-26T19:27:53.409Z,13.20
2022-09-26T19:30:22.070Z,13.19
2022-09-26T19:32:52.014Z,13.10
2022-09-26T19:35:38.970Z,13.23
2022-09-26T19:38:24.001Z,13.14
2022-09-26T19:40:54.266Z,13.20
2022-09-26T19:43:21.853Z,13.17
2022-09-26T19:45:52.326Z,13.17
2022-09-26T19:48:22.457Z,13.16
2022-09-26T19:50:50.702Z,13.16
2022-09-26T19:53:20.050Z,13.13
2022-09-26T19:55:50.684Z,13.14
2022-09-26T19:58:22.503Z,13.11
2022-09-26T20:00:51.633Z,13.14
2022-09-26T20:03:20.731Z,13.08
2022-09-26T20:05:49.354Z,13.04
2022-09-26T20:08:19.575Z,13.07
2022-09-26T20:10:46.343Z,13.13
2022-09-26T20:13:12.748Z,12.97
2022-09-26T20:15:39.508Z,13.01
2022-09-26T20:18:07.493Z,13.01
2022-09-26T20:20:36.089Z,12.96
2022-09-26T20:23:02.718Z,12.98
2022-09-26T20:25:31.540Z,12.95
2022-09-26T20:27:59.382Z,13.00
2022-09-26T20:30:45.004Z,12.94
2022-09-26T20:33:13.266Z,12.99
2022-09-26T20:35:45.975Z,12.97
2022-09-26T20:38:25.839Z,12.97
2022-09-26T20:41:01.615Z,12.96
2022-09-26T20:43:33.765Z,12.97
2022-09-26T20:46:04.545Z,12.93
2022-09-26T20:48:34.040Z,12.92
2022-09-26T20:51:02.000Z,12.96
2022-09-26T20:53:28.502Z,12.94
2022-09-26T20:55:57.803Z,12.94
2022-09-26T20:58:24.326Z,12.87
2022-09-26T21:00:52.923Z,12.96
2022-09-26T21:03:21.953Z,12.96
2022-09-26T21:05:48.530Z,12.92
2022-09-26T21:08:27.697Z,12.95
2022-09-26T21:10:56.077Z,12.92
2022-09-26T21:13:23.349Z,12.93
2022-09-26T21:15:51.322Z,12.92
2022-09-26T21:18:39.091Z,12.93
2022-09-26T21:22:02.817Z,12.96
2022-09-26T21:24:32.546Z,12.89
2022-09-26T21:26:58.996Z,12.89
2022-09-26T21:29:25.317Z,12.87
2022-09-26T21:31:53.601Z,12.88
2022-09-26T21:34:27.643Z,12.89
2022-09-26T21:36:56.941Z,12.89
2022-09-26T21:39:25.000Z,12.87
2022-09-26T21:41:54.166Z,12.87
2022-09-26T21:44:36.176Z,12.87
2022-09-26T21:47:02.522Z,12.87
2022-09-26T21:49:29.804Z,12.86
2022-09-26T21:52:03.021Z,12.85
2022-09-26T21:54:37.328Z,12.89
2022-09-26T21:57:12.351Z,12.87
2022-09-26T21:59:40.311Z,12.85
2022-09-26T22:02:06.735Z,12.86
2022-09-26T22:04:33.269Z,12.88
2022-09-26T22:06:59.673Z,12.86
2022-09-26T22:09:26.129Z,12.85
2022-09-26T22:11:52.651Z,12.85
2022-09-26T22:14:19.131Z,12.68
2022-09-26T22:16:45.613Z,12.86
2022-09-26T22:19:12.063Z,12.83
2022-09-26T22:21:38.479Z,12.90
2022-09-26T22:24:05.015Z,12.84
2022-09-26T22:26:31.510Z,12.89
2022-09-26T22:28:57.967Z,12.87
2022-09-26T22:31:24.418Z,12.88
2022-09-26T22:33:50.871Z,12.87
2022-09-26T22:36:17.319Z,12.88
2022-09-26T22:38:43.725Z,12.88
2022-09-26T22:41:10.739Z,12.88
2022-09-26T22:43:37.463Z,12.86
2022-09-26T22:46:09.363Z,12.89
2022-09-26T22:48:45.932Z,12.88
2022-09-26T22:51:14.298Z,12.89
2022-09-26T22:53:42.319Z,12.87
2022-09-26T22:56:15.603Z,12.89
2022-09-26T22:58:47.720Z,12.89
2022-09-26T23:01:17.979Z,12.89
2022-09-26T23:03:44.472Z,12.98
2022-09-26T23:06:11.544Z,12.89
2022-09-26T23:08:38.245Z,12.88
2022-09-26T23:11:07.223Z,12.85
2022-09-26T23:13:35.435Z,12.86
2022-09-26T23:16:07.401Z,12.88
2022-09-26T23:18:34.928Z,12.85
2022-09-26T23:21:26.666Z,12.89
2022-09-26T23:23:55.424Z,12.87
2022-09-26T23:26:24.520Z,12.86
2022-09-26T23:28:52.742Z,12.86
2022-09-26T23:31:20.109Z,12.85
2022-09-26T23:33:47.074Z,12.84
2022-09-26T23:36:13.804Z,12.87
2022-09-26T23:38:41.250Z,12.84
2022-09-26T23:41:09.786Z,12.79
2022-09-26T23:43:36.951Z,12.82
2022-09-26T23:46:04.112Z,12.83
2022-09-26T23:48:30.976Z,12.83
2022-09-26T23:50:58.140Z,12.81
2022-09-26T23:53:25.062Z,12.80
2022-09-26T23:55:51.950Z,12.64
2022-09-26T23:58:18.987Z,12.79
